首页
METAR-TAF:

METAR-TAF

机场 :

科克機場

科克, 爱尔兰

纬度: 51-51N, 经度: 008-29W, 海拔: 153米

当前天气观测

该预报发布于44分钟前的05:30 UTC
风速6节,风向西北
温度 9°C
湿度 100%
气压 1029 hPa
能见度10公里或以上
少量云层高于200英尺
多云层高于300英尺

METAR: EICK 010530Z 32006KT 9999 FEW002 BKN003 09/09 Q1029 TEMPO 2000

时间: 06:14 (06:14 UTC)

预报

该预报发布于1小时和14分钟前的05:00 UTC
预报有效从01日的 06点(UTC)到 02日的 06点(UTC)
风速10节,风向西北
能見度: 3000
多云层高于500英尺
轻雾
短暂存在
从 01日的 06点(UTC)到 01日的 08点(UTC)
能見度: 0700
多云层高于200英尺
成为
从 01日的 08点(UTC)到 01日的 10点(UTC)
能见度10公里或以上
少量云层高于600英尺
多云层高于1000英尺
短暂存在
从 01日的 10点(UTC)到 01日的 14点(UTC)
多云层高于600英尺
几率 30% :
短暂存在
从 01日的 14点(UTC)到 01日的 16点(UTC)
少量云层高于1000英尺
多云层高于1700英尺
短暂存在
从 01日的 16点(UTC)到 02日的 02点(UTC)
多云层高于700英尺
几率 30% :
短暂存在
从 01日的 16点(UTC)到 01日的 24点(UTC)
能見度: 3000
小毛毛雨, 轻雾
成为
从 02日的 02点(UTC)到 02日的 04点(UTC)
风速10节,风向西转西南
少量云层高于1200英尺
多云层高于2500英尺
成为
从 02日的 04点(UTC)到 02日的 06点(UTC)
风速10节,风向西转西北
短暂存在
从 02日的 04点(UTC)到 02日的 06点(UTC)
能見度: 4000
多云层高于700英尺
小雨

TAF: EICK 010500Z 0106/0206 31010KT 3000 BR BKN005 TEMPO 0106/0108 0700 FG BKN002 BECMG 0108/0110 9999 NSW FEW006 BKN010 TEMPO 0110/0114 BKN006 PROB30 TEMPO 0114/0116 FEW010 BKN017 TEMPO 0116/0202 BKN007 PROB30 TEMPO 0116/0124 3000 -DZ BR BECMG 0202/0204 24010KT FEW012 BKN025 BECMG 0204/0206 29010KT TEMPO 0204/0206 4000 -RA BKN007

超过4000个机场的气象观测和天气预报(METAR&TAF报告)。

可查询的气象台以黄色和红色小点在地图上表示。

将鼠标移到小点上方,可查看气象台名称。

然后点击查看天气观测和预报。

如需切换地图:点击带黑十字的绿色按钮放大地图;点击带横线的绿色按钮缩小地图;或者点击绿色箭头查看邻近地区的地图。


METAR-TAF: